Time;durP1;ratioP1;P1;durP2;ratioP2;P2;SDS_P1;SDS_P2;PMS_P1;PMS_P2;Temp;Humidity;BMP_temperature;BMP_pressure;BME280_temperature;BME280_humidity;BME280_pressure;Samples;Min_cycle;Max_cycle;Signal;HPM_P1;HPM_P2
2024/01/27 00:00:06;;;;;;;8.55;2.28;;;;;;;;;;6241918;28;20053;-69
2024/01/27 00:03:07;;;;;;;7.43;2.22;;;;;;;;;;6240045;28;20129;-68
2024/01/27 00:06:08;;;;;;;8.73;1.85;;;;;;;;;;6241580;28;20041;-74
2024/01/27 00:09:08;;;;;;;9.40;2.08;;;;;;;;;;6241988;28;20057;-68
2024/01/27 00:12:09;;;;;;;7.93;2.70;;;;;;;;;;6240205;28;20053;-68
2024/01/27 00:15:10;;;;;;;9.25;2.30;;;;;;;;;;6241080;28;20489;-67
2024/01/27 00:18:11;;;;;;;10.07;2.63;;;;;;;;;;6240555;28;20042;-67
2024/01/27 00:21:11;;;;;;;8.18;2.10;;;;;;;;;;6237081;28;20433;-68
2024/01/27 00:24:13;;;;;;;8.60;2.10;;;;;;;;;;6240197;28;20501;-67
2024/01/27 00:27:16;;;;;;;8.40;2.40;;;;;;;;;;6240297;28;20576;-67
2024/01/27 00:30:16;;;;;;;12.10;2.45;;;;;;;;;;6238438;28;20049;-67
2024/01/27 00:33:17;;;;;;;12.70;2.70;;;;;;;;;;6237963;28;20052;-67
2024/01/27 00:36:19;;;;;;;11.45;2.42;;;;;;;;;;6239315;28;20045;-69
2024/01/27 00:39:20;;;;;;;14.23;3.17;;;;;;;;;;6239491;28;20045;-68
2024/01/27 00:42:23;;;;;;;9.38;2.72;;;;;;;;;;6237690;28;20049;-66
2024/01/27 00:45:28;;;;;;;13.75;3.05;;;;;;;;;;6238654;28;20087;-66
2024/01/27 00:48:29;;;;;;;8.00;2.20;;;;;;;;;;6239527;28;20480;-66
2024/01/27 00:51:30;;;;;;;9.55;2.75;;;;;;;;;;6238418;28;20053;-68
2024/01/27 00:54:33;;;;;;;16.35;2.50;;;;;;;;;;6239512;28;20112;-68
2024/01/27 00:57:36;;;;;;;9.20;2.42;;;;;;;;;;6240360;28;20414;-68
2024/01/27 01:00:37;;;;;;;10.75;2.38;;;;;;;;;;6235225;28;20042;-67
2024/01/27 01:03:38;;;;;;;9.95;2.35;;;;;;;;;;6234765;28;20050;-66
2024/01/27 01:06:40;;;;;;;11.32;2.10;;;;;;;;;;6237434;28;20084;-67
2024/01/27 01:09:40;;;;;;;16.88;2.75;;;;;;;;;;6232345;28;20580;-67
2024/01/27 01:12:41;;;;;;;13.50;3.20;;;;;;;;;;6238761;28;20049;-71
2024/01/27 01:15:42;;;;;;;14.25;2.42;;;;;;;;;;6254694;28;20049;-71
2024/01/27 01:18:43;;;;;;;12.38;2.15;;;;;;;;;;6237905;28;20444;-66
2024/01/27 01:21:43;;;;;;;9.40;2.28;;;;;;;;;;6232270;28;20041;-67
2024/01/27 01:24:44;;;;;;;7.28;2.50;;;;;;;;;;6235967;28;20455;-66
2024/01/27 01:27:46;;;;;;;14.57;2.97;;;;;;;;;;6239103;28;20504;-67
2024/01/27 01:30:47;;;;;;;10.60;2.75;;;;;;;;;;6239766;28;20060;-66
2024/01/27 01:33:47;;;;;;;11.52;2.83;;;;;;;;;;6233061;28;23677;-66
2024/01/27 01:36:48;;;;;;;12.57;2.90;;;;;;;;;;6235544;28;20099;-70
2024/01/27 01:39:49;;;;;;;11.15;2.72;;;;;;;;;;6236965;28;20652;-67
2024/01/27 01:42:52;;;;;;;9.05;1.73;;;;;;;;;;6251937;28;20048;-67
2024/01/27 01:45:55;;;;;;;13.02;2.13;;;;;;;;;;6248049;28;20048;-67
2024/01/27 01:48:56;;;;;;;9.85;2.30;;;;;;;;;;6235910;28;20045;-67
2024/01/27 01:51:57;;;;;;;13.70;2.35;;;;;;;;;;6245479;28;20041;-70
2024/01/27 01:54:59;;;;;;;9.55;2.55;;;;;;;;;;6240030;28;20115;-66
2024/01/27 01:57:59;;;;;;;13.45;2.67;;;;;;;;;;6247128;28;20049;-67
2024/01/27 02:01:01;;;;;;;13.35;2.45;;;;;;;;;;6246910;28;20044;-66
2024/01/27 02:04:04;;;;;;;12.13;2.40;;;;;;;;;;6246369;28;20396;-66
2024/01/27 02:07:05;;;;;;;15.52;2.50;;;;;;;;;;6248943;28;20095;-67
2024/01/27 02:10:14;;;;;;;8.57;2.13;;;;;;;;;;6243508;28;20041;-67
2024/01/27 02:13:19;;;;;;;11.50;2.50;;;;;;;;;;6244343;28;20072;-71
2024/01/27 02:16:21;;;;;;;12.85;2.03;;;;;;;;;;6242192;28;20098;-70
2024/01/27 02:19:23;;;;;;;11.05;2.33;;;;;;;;;;6249157;28;20123;-67
2024/01/27 02:22:23;;;;;;;10.80;2.23;;;;;;;;;;6250435;28;20429;-67
2024/01/27 02:25:25;;;;;;;15.90;2.70;;;;;;;;;;6245925;28;20048;-66
2024/01/27 02:28:25;;;;;;;7.45;2.58;;;;;;;;;;6245847;28;20049;-67
2024/01/27 02:31:26;;;;;;;17.80;3.38;;;;;;;;;;6243925;28;20493;-66
2024/01/27 02:34:27;;;;;;;13.02;2.40;;;;;;;;;;6249412;28;20098;-66
2024/01/27 02:37:28;;;;;;;10.93;2.20;;;;;;;;;;6250393;28;20050;-66
2024/01/27 02:40:28;;;;;;;11.18;2.58;;;;;;;;;;6241471;28;20498;-67
2024/01/27 02:43:29;;;;;;;9.73;2.10;;;;;;;;;;6245155;28;20073;-67
2024/01/27 02:46:30;;;;;;;8.75;2.20;;;;;;;;;;6247988;28;20484;-66
2024/01/27 02:49:30;;;;;;;11.48;2.40;;;;;;;;;;6266495;28;20666;-67
2024/01/27 02:52:31;;;;;;;13.90;2.45;;;;;;;;;;6249807;28;20548;-66
2024/01/27 02:55:32;;;;;;;10.60;2.35;;;;;;;;;;6245642;28;20045;-72
2024/01/27 02:58:33;;;;;;;11.32;2.60;;;;;;;;;;6252983;28;20041;-67
2024/01/27 03:01:34;;;;;;;10.35;2.00;;;;;;;;;;6248794;28;20145;-67
2024/01/27 03:04:34;;;;;;;16.90;2.50;;;;;;;;;;6257344;28;20065;-67
2024/01/27 03:07:35;;;;;;;14.32;2.10;;;;;;;;;;6250037;28;20076;-69
2024/01/27 03:10:36;;;;;;;10.98;2.72;;;;;;;;;;6242614;28;20385;-66
2024/01/27 03:13:36;;;;;;;9.80;2.03;;;;;;;;;;6257130;28;20037;-65
2024/01/27 03:16:37;;;;;;;13.43;2.78;;;;;;;;;;6251481;28;20087;-67
2024/01/27 03:19:38;;;;;;;16.85;2.33;;;;;;;;;;6244715;28;20084;-74
2024/01/27 03:22:40;;;;;;;12.80;2.13;;;;;;;;;;6249820;28;20049;-70
2024/01/27 03:25:41;;;;;;;11.93;1.98;;;;;;;;;;6245712;28;20045;-65
2024/01/27 03:28:41;;;;;;;16.08;2.25;;;;;;;;;;6241851;28;20072;-66
2024/01/27 03:31:42;;;;;;;8.27;2.10;;;;;;;;;;6247653;28;20040;-66
2024/01/27 03:34:45;;;;;;;12.75;1.90;;;;;;;;;;6250970;28;20052;-66
2024/01/27 03:37:45;;;;;;;15.10;2.47;;;;;;;;;;6242819;28;20048;-65
2024/01/27 03:40:46;;;;;;;12.05;2.28;;;;;;;;;;6243210;28;20045;-68
2024/01/27 03:43:47;;;;;;;13.23;2.85;;;;;;;;;;6240392;28;20045;-66
2024/01/27 03:46:48;;;;;;;11.20;2.30;;;;;;;;;;6240182;28;20041;-65
2024/01/27 03:49:49;;;;;;;9.45;2.53;;;;;;;;;;6240489;28;20041;-65
2024/01/27 03:52:49;;;;;;;11.18;2.05;;;;;;;;;;6239662;28;20172;-66
2024/01/27 03:55:50;;;;;;;11.30;2.50;;;;;;;;;;6237943;28;20068;-65
2024/01/27 03:58:51;;;;;;;15.52;2.78;;;;;;;;;;6242133;28;20083;-69
2024/01/27 04:01:52;;;;;;;16.25;3.08;;;;;;;;;;6241934;28;20057;-66
2024/01/27 04:04:52;;;;;;;10.55;2.53;;;;;;;;;;6237517;28;20045;-65
2024/01/27 04:07:53;;;;;;;15.75;2.80;;;;;;;;;;6238998;28;20055;-69
2024/01/27 04:10:54;;;;;;;9.45;2.10;;;;;;;;;;6241623;28;20057;-65
2024/01/27 04:13:55;;;;;;;10.85;2.17;;;;;;;;;;6240767;28;20092;-68
2024/01/27 04:16:55;;;;;;;10.85;2.20;;;;;;;;;;6240029;28;20057;-68
2024/01/27 04:19:56;;;;;;;11.80;2.40;;;;;;;;;;6240136;28;20128;-65
2024/01/27 04:22:57;;;;;;;10.50;2.22;;;;;;;;;;6239709;28;20045;-70
2024/01/27 04:25:58;;;;;;;9.65;3.42;;;;;;;;;;6240321;28;20542;-67
2024/01/27 04:28:58;;;;;;;13.25;2.60;;;;;;;;;;6241041;28;20053;-68
2024/01/27 04:31:59;;;;;;;11.13;2.80;;;;;;;;;;6239279;28;20084;-66
2024/01/27 04:35:00;;;;;;;8.10;2.83;;;;;;;;;;6237682;28;20045;-69
2024/01/27 04:38:01;;;;;;;16.48;2.38;;;;;;;;;;6243538;28;20041;-66
2024/01/27 04:41:02;;;;;;;17.95;2.45;;;;;;;;;;6242252;28;20049;-66
2024/01/27 04:44:03;;;;;;;10.95;2.33;;;;;;;;;;6237736;28;20490;-67
2024/01/27 04:47:04;;;;;;;12.77;2.63;;;;;;;;;;6240513;28;20084;-66
2024/01/27 04:50:05;;;;;;;12.48;2.50;;;;;;;;;;6241471;28;20556;-65
2024/01/27 04:53:06;;;;;;;8.13;1.98;;;;;;;;;;6240288;28;20112;-68
2024/01/27 04:56:09;;;;;;;9.57;2.40;;;;;;;;;;6240274;28;20059;-65
2024/01/27 04:59:09;;;;;;;;;;;;;;;;;;6238470;28;20045;-66
2024/01/27 05:02:11;;;;;;;11.30;2.15;;;;;;;;;;6238152;28;19929;-66
2024/01/27 05:05:12;;;;;;;9.32;1.80;;;;;;;;;;6235179;28;20158;-66
2024/01/27 05:08:14;;;;;;;9.55;2.10;;;;;;;;;;6237378;28;20049;-66
2024/01/27 05:11:17;;;;;;;12.18;2.35;;;;;;;;;;6240804;28;20053;-68
2024/01/27 05:14:18;;;;;;;12.13;2.15;;;;;;;;;;6238011;28;20417;-66
2024/01/27 05:17:18;;;;;;;10.35;1.98;;;;;;;;;;6239444;28;20045;-66
2024/01/27 05:20:20;;;;;;;9.35;2.28;;;;;;;;;;6240816;28;20053;-66
2024/01/27 05:23:20;;;;;;;16.08;2.50;;;;;;;;;;6241096;28;20053;-70
2024/01/27 05:26:21;;;;;;;17.45;2.85;;;;;;;;;;6237836;28;20496;-65
2024/01/27 05:29:22;;;;;;;11.70;2.30;;;;;;;;;;6239264;28;20049;-66
2024/01/27 05:32:23;;;;;;;11.05;2.30;;;;;;;;;;6240158;28;20092;-66
2024/01/27 05:35:23;;;;;;;9.75;2.17;;;;;;;;;;6238343;28;20041;-66
2024/01/27 05:38:25;;;;;;;12.50;2.55;;;;;;;;;;6240644;28;20435;-65
2024/01/27 05:41:28;;;;;;;15.80;2.15;;;;;;;;;;6240011;28;20127;-67
2024/01/27 05:44:29;;;;;;;8.05;2.00;;;;;;;;;;6238929;28;20049;-66
2024/01/27 05:47:30;;;;;;;10.40;2.33;;;;;;;;;;6239287;28;20103;-65
2024/01/27 05:50:32;;;;;;;14.68;2.58;;;;;;;;;;6239697;28;20057;-69
2024/01/27 05:53:35;;;;;;;12.80;2.10;;;;;;;;;;6238876;28;20045;-67
2024/01/27 05:56:38;;;;;;;14.98;2.65;;;;;;;;;;6238702;28;20072;-68
2024/01/27 05:59:38;;;;;;;12.63;2.33;;;;;;;;;;6238343;28;20060;-65
2024/01/27 06:02:39;;;;;;;12.15;2.22;;;;;;;;;;6239449;28;20046;-65
2024/01/27 06:05:41;;;;;;;10.82;2.40;;;;;;;;;;6237868;28;20107;-65
2024/01/27 06:08:42;;;;;;;11.65;2.50;;;;;;;;;;6239880;28;20057;-65
2024/01/27 06:11:43;;;;;;;10.80;2.13;;;;;;;;;;6238587;28;20504;-65
2024/01/27 06:14:44;;;;;;;16.77;2.47;;;;;;;;;;6237723;28;20073;-70
2024/01/27 06:17:44;;;;;;;11.30;1.90;;;;;;;;;;6239267;28;20045;-65
2024/01/27 06:20:46;;;;;;;12.10;2.53;;;;;;;;;;6244784;28;20049;-65
2024/01/27 06:23:47;;;;;;;11.98;2.35;;;;;;;;;;6244041;28;20054;-65
2024/01/27 06:26:48;;;;;;;10.85;2.60;;;;;;;;;;6241680;28;20065;-65
2024/01/27 06:29:48;;;;;;;11.90;2.10;;;;;;;;;;6241458;28;20057;-65
2024/01/27 06:32:49;;;;;;;9.30;1.73;;;;;;;;;;6242977;28;20102;-61
2024/01/27 06:35:50;;;;;;;13.85;2.42;;;;;;;;;;6241962;28;20045;-69
2024/01/27 06:38:51;;;;;;;10.10;2.22;;;;;;;;;;6244882;28;20160;-62
2024/01/27 06:41:52;;;;;;;12.60;2.67;;;;;;;;;;6243615;28;20046;-63
2024/01/27 06:44:52;;;;;;;13.02;2.17;;;;;;;;;;6241291;28;20033;-64
2024/01/27 06:47:53;;;;;;;9.25;2.85;;;;;;;;;;6243234;28;20069;-64
2024/01/27 06:50:54;;;;;;;8.07;2.22;;;;;;;;;;6244453;28;20136;-64
2024/01/27 06:53:54;;;;;;;12.60;2.25;;;;;;;;;;6241920;28;20046;-64
2024/01/27 06:56:55;;;;;;;11.18;2.20;;;;;;;;;;6242367;28;20053;-64
2024/01/27 06:59:56;;;;;;;13.77;2.30;;;;;;;;;;6242358;28;20053;-69
2024/01/27 07:03:00;;;;;;;16.02;2.58;;;;;;;;;;6243287;28;20049;-64
2024/01/27 07:06:01;;;;;;;9.65;2.40;;;;;;;;;;6240445;28;20473;-64
2024/01/27 07:09:01;;;;;;;10.45;2.33;;;;;;;;;;6243006;28;20464;-63
2024/01/27 07:12:02;;;;;;;7.72;1.95;;;;;;;;;;6240820;28;20391;-64
2024/01/27 07:15:03;;;;;;;10.75;1.75;;;;;;;;;;6241187;28;20045;-65
2024/01/27 07:18:04;;;;;;;7.43;2.53;;;;;;;;;;6240628;28;20087;-63
2024/01/27 07:21:05;;;;;;;8.18;2.58;;;;;;;;;;6243084;28;20079;-63
2024/01/27 07:24:06;;;;;;;11.13;2.47;;;;;;;;;;6236590;28;20053;-65
2024/01/27 07:27:07;;;;;;;11.43;2.35;;;;;;;;;;6240530;28;20056;-79
2024/01/27 07:30:11;;;;;;;11.32;2.17;;;;;;;;;;6241240;28;20485;-67
2024/01/27 07:33:12;;;;;;;9.07;2.50;;;;;;;;;;6237674;28;20056;-65
2024/01/27 07:36:12;;;;;;;14.43;2.53;;;;;;;;;;6241148;28;20075;-65
2024/01/27 07:39:13;;;;;;;10.57;2.60;;;;;;;;;;6237376;28;20118;-65
2024/01/27 07:42:14;;;;;;;7.72;2.25;;;;;;;;;;6242653;28;20049;-65
2024/01/27 07:45:15;;;;;;;12.95;1.95;;;;;;;;;;6241603;28;20481;-65
2024/01/27 07:48:16;;;;;;;12.63;2.80;;;;;;;;;;6240508;28;20096;-66
2024/01/27 07:51:17;;;;;;;15.48;2.60;;;;;;;;;;6241903;28;20049;-65
2024/01/27 07:54:17;;;;;;;7.50;2.00;;;;;;;;;;6239320;28;20064;-65
2024/01/27 07:57:18;;;;;;;16.00;2.40;;;;;;;;;;6238914;28;20045;-65
2024/01/27 08:00:19;;;;;;;10.50;2.10;;;;;;;;;;6239662;28;20057;-65
2024/01/27 08:03:20;;;;;;;9.20;2.63;;;;;;;;;;6237489;28;20493;-66
2024/01/27 08:06:29;;;;;;;16.65;2.15;;;;;;;;;;6237364;28;20141;-65
2024/01/27 08:09:30;;;;;;;13.02;2.22;;;;;;;;;;6241657;28;20053;-66
2024/01/27 08:12:31;;;;;;;9.95;2.53;;;;;;;;;;6242122;28;20095;-66
2024/01/27 08:15:33;;;;;;;8.82;2.30;;;;;;;;;;6239474;28;20041;-65
2024/01/27 08:18:34;;;;;;;13.32;2.90;;;;;;;;;;6241843;28;20045;-65
2024/01/27 08:21:35;;;;;;;10.90;2.33;;;;;;;;;;6242327;28;20586;-64
2024/01/27 08:24:35;;;;;;;17.50;3.42;;;;;;;;;;6241846;28;20678;-65
2024/01/27 08:27:36;;;;;;;14.13;2.30;;;;;;;;;;6236736;28;20061;-65
2024/01/27 08:30:37;;;;;;;15.98;2.58;;;;;;;;;;6241070;28;20409;-65
2024/01/27 08:33:38;;;;;;;13.37;3.00;;;;;;;;;;6242686;28;20583;-65
2024/01/27 08:36:39;;;;;;;14.27;2.83;;;;;;;;;;6237532;28;20307;-65
2024/01/27 08:39:40;;;;;;;14.10;2.30;;;;;;;;;;6240019;28;20404;-66
2024/01/27 08:42:41;;;;;;;10.00;2.83;;;;;;;;;;6241412;28;20049;-65
2024/01/27 08:45:41;;;;;;;10.88;3.53;;;;;;;;;;6240522;28;20057;-64
2024/01/27 08:48:42;;;;;;;17.77;3.75;;;;;;;;;;6240314;28;20045;-66
2024/01/27 08:51:43;;;;;;;13.80;2.97;;;;;;;;;;6237324;28;20539;-64
2024/01/27 08:54:43;;;;;;;14.00;2.53;;;;;;;;;;6240872;28;20638;-63
2024/01/27 08:57:46;;;;;;;8.13;2.10;;;;;;;;;;6240841;28;20049;-65
2024/01/27 09:00:46;;;;;;;12.13;2.78;;;;;;;;;;6241839;28;20049;-65
2024/01/27 09:03:47;;;;;;;14.60;2.47;;;;;;;;;;6241252;28;20056;-67
2024/01/27 09:06:48;;;;;;;13.95;3.25;;;;;;;;;;6240496;28;20045;-65
2024/01/27 09:09:49;;;;;;;14.95;3.20;;;;;;;;;;6241031;28;20124;-65
2024/01/27 09:12:50;;;;;;;13.70;3.00;;;;;;;;;;6241098;28;20459;-65
2024/01/27 09:15:51;;;;;;;12.23;3.15;;;;;;;;;;6239084;28;20393;-65
2024/01/27 09:18:52;;;;;;;17.58;3.97;;;;;;;;;;6240286;28;20377;-66
2024/01/27 09:21:53;;;;;;;12.07;3.30;;;;;;;;;;6241650;28;20045;-66
2024/01/27 09:24:54;;;;;;;18.13;3.92;;;;;;;;;;6240963;28;20518;-66
2024/01/27 09:27:56;;;;;;;16.88;3.95;;;;;;;;;;6239949;28;20054;-61
2024/01/27 09:30:57;;;;;;;15.03;3.67;;;;;;;;;;6239911;28;20096;-64
2024/01/27 09:33:58;;;;;;;14.55;3.53;;;;;;;;;;6240577;28;20500;-66
2024/01/27 09:36:58;;;;;;;15.73;3.60;;;;;;;;;;6239385;28;20122;-67
2024/01/27 09:40:01;;;;;;;18.70;4.00;;;;;;;;;;6238351;28;20488;-65
2024/01/27 09:43:01;;;;;;;13.27;3.90;;;;;;;;;;6236255;28;20902;-65
2024/01/27 09:46:02;;;;;;;11.30;3.28;;;;;;;;;;6234094;28;20053;-66
2024/01/27 09:49:04;;;;;;;18.38;4.40;;;;;;;;;;6237092;28;20060;-66
2024/01/27 09:52:05;;;;;;;14.60;3.70;;;;;;;;;;6237982;28;20045;-65
2024/01/27 09:55:07;;;;;;;20.17;3.45;;;;;;;;;;6226814;28;20421;-64
2024/01/27 09:58:10;;;;;;;17.83;3.80;;;;;;;;;;6226703;28;20042;-66
2024/01/27 10:01:10;;;;;;;;;;;;;;;;;;6238916;28;20053;-65
2024/01/27 10:04:12;;;;;;;12.93;3.85;;;;;;;;;;6234585;28;19925;-65
2024/01/27 10:07:13;;;;;;;19.00;4.03;;;;;;;;;;6236103;28;20477;-65
2024/01/27 10:10:14;;;;;;;14.95;4.15;;;;;;;;;;6238356;28;20064;-64
2024/01/27 10:13:26;;;;;;;16.30;3.45;;;;;;;;;;6238719;28;20305;-65
2024/01/27 10:16:27;;;;;;;17.30;4.20;;;;;;;;;;6235426;28;20076;-65
2024/01/27 10:19:28;;;;;;;13.38;3.88;;;;;;;;;;6239411;28;20041;-65
2024/01/27 10:22:38;;;;;;;16.73;3.97;;;;;;;;;;6241035;28;20149;-65
2024/01/27 10:25:39;;;;;;;13.63;4.50;;;;;;;;;;6238842;28;20136;-65
2024/01/27 10:28:42;;;;;;;23.88;4.07;;;;;;;;;;6238696;28;20067;-64
2024/01/27 10:31:43;;;;;;;19.52;4.10;;;;;;;;;;6239013;28;20381;-65
2024/01/27 10:34:44;;;;;;;13.77;4.38;;;;;;;;;;6239323;28;20141;-65
2024/01/27 10:37:44;;;;;;;20.55;4.13;;;;;;;;;;6235980;28;20045;-65
2024/01/27 10:40:45;;;;;;;12.00;3.83;;;;;;;;;;6237443;28;20473;-66
2024/01/27 10:43:49;;;;;;;9.88;3.38;;;;;;;;;;6237967;28;20404;-65
2024/01/27 10:46:51;;;;;;;19.92;3.97;;;;;;;;;;6237865;28;20111;-65
2024/01/27 10:49:54;;;;;;;19.90;3.67;;;;;;;;;;6238334;28;20129;-64
2024/01/27 10:52:58;;;;;;;16.00;3.65;;;;;;;;;;6241056;28;20053;-64
2024/01/27 10:55:59;;;;;;;11.05;3.88;;;;;;;;;;6231067;28;20481;-65
2024/01/27 10:59:03;;;;;;;14.33;3.73;;;;;;;;;;6231975;28;20053;-64
2024/01/27 11:02:05;;;;;;;20.63;4.03;;;;;;;;;;6237774;28;20049;-66
2024/01/27 11:05:07;;;;;;;12.93;3.80;;;;;;;;;;6239960;28;20141;-64
2024/01/27 11:08:09;;;;;;;19.85;4.13;;;;;;;;;;6241849;28;20051;-65
2024/01/27 11:11:10;;;;;;;12.83;3.30;;;;;;;;;;6241219;28;20107;-65
2024/01/27 11:14:11;;;;;;;10.50;3.45;;;;;;;;;;6242933;28;20293;-65
2024/01/27 11:17:12;;;;;;;19.23;3.50;;;;;;;;;;6241027;28;20049;-65
2024/01/27 11:20:16;;;;;;;15.05;3.17;;;;;;;;;;6241960;28;20721;-65
2024/01/27 11:23:17;;;;;;;15.65;3.75;;;;;;;;;;6242824;28;20057;-67
2024/01/27 11:26:21;;;;;;;12.70;4.35;;;;;;;;;;6242189;28;20037;-65
2024/01/27 11:29:22;;;;;;;18.92;4.50;;;;;;;;;;6240204;28;20132;-66
2024/01/27 11:32:22;;;;;;;19.73;4.30;;;;;;;;;;6242369;28;20057;-65
2024/01/27 11:35:24;;;;;;;18.63;3.72;;;;;;;;;;6242515;28;20046;-67
2024/01/27 11:38:24;;;;;;;11.23;3.40;;;;;;;;;;6241246;28;20045;-66
2024/01/27 11:41:27;;;;;;;13.73;3.60;;;;;;;;;;6240486;28;20211;-66
2024/01/27 11:44:27;;;;;;;17.02;4.72;;;;;;;;;;6241921;28;20138;-66
2024/01/27 11:47:29;;;;;;;22.13;4.75;;;;;;;;;;6241682;28;20045;-67
2024/01/27 11:50:30;;;;;;;15.85;4.03;;;;;;;;;;6227908;28;20481;-65
2024/01/27 11:53:31;;;;;;;14.80;3.47;;;;;;;;;;6242267;28;20058;-66
2024/01/27 11:56:31;;;;;;;18.95;4.50;;;;;;;;;;6241593;28;20567;-66
2024/01/27 11:59:34;;;;;;;15.75;3.95;;;;;;;;;;6242356;28;20064;-68
2024/01/27 12:02:35;;;;;;;;;;;;;;;;;;6240629;28;20132;-67
2024/01/27 12:05:35;;;;;;;12.07;4.00;;;;;;;;;;6241026;28;20435;-65
2024/01/27 12:08:36;;;;;;;17.92;4.47;;;;;;;;;;6240109;28;20053;-66
2024/01/27 12:11:40;;;;;;;12.95;4.15;;;;;;;;;;6240953;28;20049;-68
2024/01/27 12:14:41;;;;;;;17.88;4.20;;;;;;;;;;6239199;28;20365;-65
2024/01/27 12:17:42;;;;;;;12.88;4.18;;;;;;;;;;6240131;28;20038;-65
2024/01/27 12:20:43;;;;;;;15.52;3.90;;;;;;;;;;6240161;28;20061;-66
2024/01/27 12:23:53;;;;;;;11.82;4.40;;;;;;;;;;6240877;28;20045;-70
2024/01/27 12:26:57;;;;;;;16.67;4.47;;;;;;;;;;6257098;28;20360;-69
2024/01/27 12:29:58;;;;;;;14.00;4.72;;;;;;;;;;6240850;28;20899;-70
2024/01/27 12:32:58;;;;;;;15.95;4.88;;;;;;;;;;6242595;28;20058;-69
2024/01/27 12:35:59;;;;;;;15.13;4.95;;;;;;;;;;6238680;28;20108;-68
2024/01/27 12:39:04;;;;;;;20.35;4.93;;;;;;;;;;6237444;28;20053;-68
2024/01/27 12:42:05;;;;;;;20.08;5.40;;;;;;;;;;6217431;28;20504;-70
2024/01/27 12:45:08;;;;;;;13.13;4.97;;;;;;;;;;6240614;28;20111;-70
2024/01/27 12:48:09;;;;;;;20.13;6.05;;;;;;;;;;6242177;28;20138;-69
2024/01/27 12:51:09;;;;;;;17.05;5.07;;;;;;;;;;6231011;28;20135;-66
2024/01/27 12:54:10;;;;;;;24.85;6.72;;;;;;;;;;6232902;28;20095;-68
2024/01/27 12:57:11;;;;;;;16.25;5.40;;;;;;;;;;6241833;28;20057;-68
2024/01/27 13:00:12;;;;;;;20.50;5.85;;;;;;;;;;6240611;28;20033;-69
2024/01/27 13:03:14;;;;;;;18.10;5.78;;;;;;;;;;6240573;28;20037;-68
2024/01/27 13:06:15;;;;;;;20.65;5.47;;;;;;;;;;6242170;28;20045;-68
2024/01/27 13:09:16;;;;;;;29.73;7.28;;;;;;;;;;6240532;28;20601;-69
2024/01/27 13:12:17;;;;;;;23.50;6.40;;;;;;;;;;6241114;28;20512;-69
2024/01/27 13:15:18;;;;;;;23.33;6.88;;;;;;;;;;6241684;28;20042;-68
2024/01/27 13:18:20;;;;;;;21.58;6.50;;;;;;;;;;6241815;28;20061;-69
2024/01/27 13:21:20;;;;;;;23.10;6.93;;;;;;;;;;6240241;28;20045;-70
2024/01/27 13:24:22;;;;;;;20.70;6.30;;;;;;;;;;6241847;28;20050;-70
2024/01/27 13:27:23;;;;;;;24.08;7.57;;;;;;;;;;6239411;28;20064;-68
2024/01/27 13:30:24;;;;;;;18.83;6.18;;;;;;;;;;6247094;28;20132;-69
2024/01/27 13:33:24;;;;;;;21.98;6.47;;;;;;;;;;6249749;28;20045;-67
2024/01/27 13:36:25;;;;;;;17.10;6.57;;;;;;;;;;6250071;28;20447;-74
2024/01/27 13:39:26;;;;;;;17.95;6.13;;;;;;;;;;6241772;28;20477;-64
2024/01/27 13:42:27;;;;;;;23.02;6.85;;;;;;;;;;6238639;28;20046;-70
2024/01/27 13:45:27;;;;;;;22.88;6.88;;;;;;;;;;6226683;28;20452;-74
2024/01/27 13:48:29;;;;;;;20.40;6.95;;;;;;;;;;6229711;28;20057;-72
2024/01/27 13:51:30;;;;;;;20.70;6.68;;;;;;;;;;6238080;28;20046;-74
2024/01/27 13:54:32;;;;;;;22.95;7.00;;;;;;;;;;6238660;28;20054;-73
2024/01/27 13:57:33;;;;;;;31.02;8.88;;;;;;;;;;6237641;28;20516;-71
2024/01/27 14:00:35;;;;;;;26.05;8.00;;;;;;;;;;6236056;28;20042;-75
2024/01/27 14:03:36;;;;;;;34.30;8.73;;;;;;;;;;6237963;28;20053;-72
2024/01/27 14:06:37;;;;;;;35.42;10.23;;;;;;;;;;6240073;28;20452;-69
2024/01/27 14:09:38;;;;;;;33.25;10.05;;;;;;;;;;6231917;28;20046;-68
2024/01/27 14:12:39;;;;;;;30.35;8.73;;;;;;;;;;6227047;28;20053;-70
2024/01/27 14:15:40;;;;;;;30.17;8.68;;;;;;;;;;6227100;28;20049;-72
2024/01/27 14:18:42;;;;;;;27.90;7.53;;;;;;;;;;6225983;28;20075;-70
2024/01/27 14:21:42;;;;;;;28.42;7.65;;;;;;;;;;6231139;28;20045;-71
2024/01/27 14:24:44;;;;;;;31.88;8.57;;;;;;;;;;6229198;28;20140;-73
2024/01/27 14:27:45;;;;;;;33.28;8.57;;;;;;;;;;6237116;28;20497;-73
2024/01/27 14:30:45;;;;;;;25.83;7.68;;;;;;;;;;6238403;28;20092;-72
2024/01/27 14:33:46;;;;;;;25.33;8.70;;;;;;;;;;6241169;28;20049;-68
2024/01/27 14:36:47;;;;;;;26.25;8.50;;;;;;;;;;6240811;28;20409;-69
2024/01/27 14:39:48;;;;;;;31.75;8.98;;;;;;;;;;6235878;28;20049;-69
2024/01/27 14:42:49;;;;;;;28.88;8.77;;;;;;;;;;6249195;28;20133;-71
2024/01/27 14:45:50;;;;;;;31.08;8.45;;;;;;;;;;6236860;28;20049;-69
2024/01/27 14:48:51;;;;;;;34.25;9.10;;;;;;;;;;6235576;28;20053;-67
2024/01/27 14:51:51;;;;;;;30.48;8.63;;;;;;;;;;6231346;28;20042;-68
2024/01/27 14:54:52;;;;;;;34.17;9.30;;;;;;;;;;6232103;28;20457;-67
2024/01/27 14:57:53;;;;;;;36.75;9.20;;;;;;;;;;6234886;28;20554;-68
2024/01/27 15:00:54;;;;;;;31.63;9.25;;;;;;;;;;6225231;28;20057;-70
2024/01/27 15:03:55;;;;;;;41.75;11.10;;;;;;;;;;6234243;28;20444;-69
2024/01/27 15:06:57;;;;;;;42.72;11.98;;;;;;;;;;6235733;28;20041;-70
2024/01/27 15:09:57;;;;;;;41.95;11.43;;;;;;;;;;6233295;28;20064;-70
2024/01/27 15:12:59;;;;;;;38.22;11.50;;;;;;;;;;6233473;28;20049;-70
2024/01/27 15:16:00;;;;;;;43.70;11.90;;;;;;;;;;6233119;28;20412;-68
2024/01/27 15:19:01;;;;;;;54.08;14.95;;;;;;;;;;6233397;28;20055;-69
2024/01/27 15:22:01;;;;;;;37.25;11.30;;;;;;;;;;6231846;28;20058;-69
2024/01/27 15:25:03;;;;;;;48.47;12.95;;;;;;;;;;6234110;28;20165;-69
2024/01/27 15:28:04;;;;;;;43.67;12.20;;;;;;;;;;6231639;28;20066;-69
2024/01/27 15:31:05;;;;;;;51.07;13.40;;;;;;;;;;6228698;28;20057;-69
2024/01/27 15:34:08;;;;;;;48.30;13.32;;;;;;;;;;6234404;28;20329;-68
2024/01/27 15:37:09;;;;;;;47.58;14.38;;;;;;;;;;6233647;28;20062;-66
2024/01/27 15:40:10;;;;;;;56.75;15.27;;;;;;;;;;6231319;28;20045;-68
2024/01/27 15:43:11;;;;;;;40.63;14.30;;;;;;;;;;6229683;28;20187;-67
2024/01/27 15:46:12;;;;;;;45.08;13.05;;;;;;;;;;6232841;28;20303;-66
2024/01/27 15:49:13;;;;;;;44.03;11.93;;;;;;;;;;6231344;28;20412;-66
2024/01/27 15:52:14;;;;;;;59.05;13.85;;;;;;;;;;6227453;28;20049;-68
2024/01/27 15:55:15;;;;;;;48.53;12.38;;;;;;;;;;6232088;28;20052;-65
2024/01/27 15:58:16;;;;;;;46.85;13.30;;;;;;;;;;6232308;28;20057;-71
2024/01/27 16:01:17;;;;;;;40.65;11.32;;;;;;;;;;6229538;28;20132;-65
2024/01/27 16:04:18;;;;;;;45.63;11.95;;;;;;;;;;6232733;28;20913;-64
2024/01/27 16:07:19;;;;;;;43.70;14.27;;;;;;;;;;6232268;28;20536;-66
2024/01/27 16:10:19;;;;;;;44.30;12.13;;;;;;;;;;6236187;28;20045;-66
2024/01/27 16:13:21;;;;;;;39.05;11.50;;;;;;;;;;6232558;28;20060;-67
2024/01/27 16:16:24;;;;;;;33.92;10.35;;;;;;;;;;6232783;28;20083;-67
2024/01/27 16:19:26;;;;;;;40.90;11.60;;;;;;;;;;6233853;28;20425;-66
2024/01/27 16:22:26;;;;;;;37.10;10.80;;;;;;;;;;6230276;28;20045;-70
2024/01/27 16:25:27;;;;;;;42.95;11.75;;;;;;;;;;6232127;28;20421;-67
2024/01/27 16:28:28;;;;;;;44.33;11.10;;;;;;;;;;6232440;28;20049;-68
2024/01/27 16:31:29;;;;;;;42.45;10.30;;;;;;;;;;6229221;28;20045;-67
2024/01/27 16:34:29;;;;;;;43.15;10.05;;;;;;;;;;6231703;28;20056;-67
2024/01/27 16:37:30;;;;;;;35.17;10.98;;;;;;;;;;6231315;28;20053;-67
2024/01/27 16:40:31;;;;;;;31.17;10.88;;;;;;;;;;6227020;28;20123;-67
2024/01/27 16:43:32;;;;;;;38.08;11.90;;;;;;;;;;6232241;28;20064;-67
2024/01/27 16:46:33;;;;;;;47.72;11.63;;;;;;;;;;6232622;28;21324;-67
2024/01/27 16:49:34;;;;;;;44.03;13.27;;;;;;;;;;6229827;28;20061;-66
2024/01/27 16:52:36;;;;;;;47.50;12.15;;;;;;;;;;6231191;28;20463;-65
2024/01/27 16:55:39;;;;;;;46.13;13.13;;;;;;;;;;6230750;28;20493;-68
2024/01/27 16:58:46;;;;;;;52.58;13.45;;;;;;;;;;6231839;28;20053;-66
2024/01/27 17:01:47;;;;;;;46.17;12.90;;;;;;;;;;6226801;28;20111;-65
2024/01/27 17:04:49;;;;;;;52.60;12.73;;;;;;;;;;6230467;28;20572;-63
2024/01/27 17:07:50;;;;;;;53.17;12.80;;;;;;;;;;6231594;28;20534;-64
2024/01/27 17:10:51;;;;;;;44.45;13.13;;;;;;;;;;6227255;28;20056;-63
2024/01/27 17:13:52;;;;;;;44.63;12.35;;;;;;;;;;6231362;28;20045;-66
2024/01/27 17:16:54;;;;;;;41.08;11.93;;;;;;;;;;6230903;28;20041;-64
2024/01/27 17:19:57;;;;;;;41.13;12.27;;;;;;;;;;6228826;28;20049;-64
2024/01/27 17:22:57;;;;;;;43.15;12.52;;;;;;;;;;6230276;28;20469;-66
2024/01/27 17:25:59;;;;;;;41.58;12.10;;;;;;;;;;6231877;28;20060;-63
2024/01/27 17:29:00;;;;;;;37.83;11.37;;;;;;;;;;6229798;28;20049;-65
2024/01/27 17:32:01;;;;;;;36.13;10.73;;;;;;;;;;6221893;28;20114;-68
2024/01/27 17:35:04;;;;;;;36.13;10.57;;;;;;;;;;6230445;28;20041;-67
2024/01/27 17:38:05;;;;;;;35.63;9.25;;;;;;;;;;6232489;28;20061;-66
2024/01/27 17:41:05;;;;;;;29.13;9.10;;;;;;;;;;6226912;28;20092;-67
2024/01/27 17:44:07;;;;;;;27.63;8.90;;;;;;;;;;6229480;28;20072;-69
2024/01/27 17:47:08;;;;;;;25.58;7.50;;;;;;;;;;6230185;28;20054;-64
2024/01/27 17:50:09;;;;;;;28.95;8.05;;;;;;;;;;6244692;28;20072;-66